Terminal Aerodrome Forecast
Issued by NWS

Home | Current Version | Previous Version | Text Only | Print | Product List | Glossary On
Versions: 1 2 3 4 5 6 7 8 9 10 11 12 13 14 15 16 17 18 19 20
670
FTUS43 KJKL 151120
TAFSME
TAF
KSME 151120Z 1512/1612 19008KT P6SM SCT200
     FM151800 20008G17KT P6SM VCSH BKN080
     FM152100 21007KT P6SM -SHRA OVC050
     FM160000 22007KT P6SM -SHRA OVC020
     FM160300 25006KT P6SM VCSH OVC010=

USA.gov is the U.S. government's official web portal to all federal, state and local government web resources and services.